createdAt,value
2022-12-18T00:00:43.720Z,25.50
2022-12-18T00:05:52.125Z,25.03
2022-12-18T00:10:59.841Z,24.87
2022-12-18T00:16:11.409Z,25.47
2022-12-18T00:21:17.407Z,26.23
2022-12-18T00:26:26.264Z,27.43
2022-12-18T00:31:38.807Z,26.47
2022-12-18T00:36:44.953Z,24.27
2022-12-18T00:42:02.945Z,24.93
2022-12-18T00:47:10.685Z,25.57
2022-12-18T00:52:15.671Z,24.90
2022-12-18T00:57:20.610Z,26.23
2022-12-18T01:02:28.568Z,23.67
2022-12-18T01:07:34.010Z,23.70
2022-12-18T01:12:40.796Z,24.17
2022-12-18T01:17:48.799Z,23.97
2022-12-18T01:22:53.699Z,21.67
2022-12-18T01:27:58.967Z,21.87
2022-12-18T01:33:08.130Z,24.27
2022-12-18T01:38:14.142Z,24.80
2022-12-18T01:43:19.003Z,24.87
2022-12-18T01:48:27.403Z,22.27
2022-12-18T01:53:32.513Z,23.83
2022-12-18T01:58:44.684Z,21.10
2022-12-18T02:03:52.472Z,27.07
2022-12-18T02:09:06.456Z,23.53
2022-12-18T02:14:22.167Z,22.13
2022-12-18T02:19:56.983Z,23.43
2022-12-18T02:25:16.326Z,26.87
2022-12-18T02:30:25.351Z,27.63
2022-12-18T02:35:33.360Z,24.93
2022-12-18T02:40:42.138Z,26.30
2022-12-18T02:45:56.203Z,23.97
2022-12-18T02:51:07.407Z,27.20
2022-12-18T02:56:18.275Z,23.47
2022-12-18T03:01:33.322Z,24.93
2022-12-18T03:06:44.891Z,27.97
2022-12-18T03:12:10.404Z,25.00
2022-12-18T03:17:24.450Z,26.03
2022-12-18T03:22:33.117Z,23.40
2022-12-18T03:27:44.892Z,23.60
2022-12-18T03:33:00.714Z,21.77
2022-12-18T03:38:07.679Z,22.57
2022-12-18T03:43:24.344Z,22.10
2022-12-18T03:48:36.544Z,23.37
2022-12-18T03:53:55.410Z,22.27
2022-12-18T03:59:05.122Z,23.40
2022-12-18T04:04:15.895Z,19.27
2022-12-18T04:09:23.152Z,18.70
2022-12-18T04:14:29.404Z,18.83
2022-12-18T04:19:38.422Z,18.53
2022-12-18T04:24:43.792Z,18.03
2022-12-18T04:30:07.885Z,19.63
2022-12-18T04:35:16.069Z,17.73
2022-12-18T04:40:22.513Z,20.00
2022-12-18T04:45:28.318Z,19.47
2022-12-18T04:50:36.329Z,18.07
2022-12-18T04:55:41.191Z,17.87
2022-12-18T05:00:46.061Z,18.73
2022-12-18T05:05:56.123Z,17.30
2022-12-18T05:11:05.750Z,16.77
2022-12-18T05:16:11.585Z,17.40
2022-12-18T05:21:19.197Z,18.43
2022-12-18T05:26:24.141Z,17.90
2022-12-18T05:31:29.116Z,19.10
2022-12-18T05:36:36.699Z,18.80
2022-12-18T05:41:41.602Z,19.53
2022-12-18T05:46:46.664Z,19.00
2022-12-18T05:51:54.568Z,20.50
2022-12-18T05:56:59.488Z,19.33
2022-12-18T06:02:04.524Z,20.97
2022-12-18T06:07:12.122Z,19.70
2022-12-18T06:12:17.397Z,19.87
2022-12-18T06:17:22.423Z,23.30
2022-12-18T06:22:30.138Z,22.30
2022-12-18T06:27:35.058Z,21.10
2022-12-18T06:32:40.425Z,20.63
2022-12-18T06:37:48.191Z,20.57
2022-12-18T06:42:53.170Z,24.53
2022-12-18T06:47:58.549Z,23.37
2022-12-18T06:53:07.965Z,23.87
2022-12-18T06:58:13.001Z,23.03
2022-12-18T07:03:17.952Z,20.87
2022-12-18T07:08:25.494Z,22.93
2022-12-18T07:13:30.775Z,22.33
2022-12-18T07:18:35.718Z,22.17
2022-12-18T07:23:44.018Z,22.10
2022-12-18T07:28:52.642Z,20.10
2022-12-18T07:33:57.875Z,19.80
2022-12-18T07:39:05.506Z,20.23
2022-12-18T07:44:12.868Z,19.93
2022-12-18T07:49:17.736Z,19.97
2022-12-18T07:54:25.654Z,21.17
2022-12-18T07:59:30.554Z,20.43
2022-12-18T08:04:35.684Z,20.83
2022-12-18T08:09:43.293Z,19.97
2022-12-18T08:14:48.166Z,18.83
2022-12-18T08:19:53.506Z,16.27
2022-12-18T08:25:02.352Z,16.40
2022-12-18T08:30:08.447Z,17.27
2022-12-18T08:35:14.801Z,16.83
2022-12-18T08:40:25.213Z,20.00
2022-12-18T08:45:30.269Z,18.87
2022-12-18T08:50:35.162Z,17.77
2022-12-18T08:55:48.570Z,15.77
2022-12-18T09:00:55.679Z,15.70
2022-12-18T09:06:00.731Z,20.97
2022-12-18T09:11:08.588Z,17.93
2022-12-18T09:16:13.538Z,18.83
2022-12-18T09:21:20.443Z,20.73
2022-12-18T09:26:29.485Z,20.10
2022-12-18T09:31:36.036Z,19.33
2022-12-18T09:36:41.591Z,20.57
2022-12-18T09:41:58.014Z,19.47
2022-12-18T09:47:14.662Z,16.97
2022-12-18T09:52:25.462Z,18.77
2022-12-18T09:57:36.113Z,19.03
2022-12-18T10:02:41.306Z,18.07
2022-12-18T10:07:57.221Z,17.83
2022-12-18T10:13:13.989Z,16.77
2022-12-18T10:18:29.535Z,18.93
2022-12-18T10:23:48.558Z,18.93
2022-12-18T10:29:02.207Z,19.17
2022-12-18T10:34:13.927Z,16.70
2022-12-18T10:39:24.721Z,19.23
2022-12-18T10:44:32.373Z,19.23
2022-12-18T10:49:39.683Z,19.63
2022-12-18T10:54:50.420Z,17.77
2022-12-18T11:00:00.183Z,19.07
2022-12-18T11:05:06.562Z,18.63
2022-12-18T11:10:20.559Z,20.60
2022-12-18T11:15:33.271Z,19.47
2022-12-18T11:20:40.103Z,19.60
2022-12-18T11:25:56.267Z,18.27
2022-12-18T11:31:23.421Z,20.33
2022-12-18T11:36:34.818Z,18.43
2022-12-18T11:42:01.616Z,19.10
2022-12-18T11:47:19.155Z,18.87
2022-12-18T11:52:28.606Z,18.57
2022-12-18T11:57:42.189Z,16.60
2022-12-18T12:03:11.741Z,17.17
2022-12-18T12:08:23.215Z,13.93
2022-12-18T12:13:40.448Z,15.10
2022-12-18T12:19:04.104Z,15.47
2022-12-18T12:24:23.887Z,16.47
2022-12-18T12:29:42.169Z,16.27
2022-12-18T12:35:09.441Z,15.83
2022-12-18T12:40:51.375Z,13.73
2022-12-18T12:45:54.836Z,14.27
2022-12-18T12:51:04.556Z,15.47
2022-12-18T12:56:12.512Z,14.13
2022-12-18T13:01:29.605Z,13.43
2022-12-18T13:06:47.504Z,14.83
2022-12-18T13:12:05.663Z,14.53
2022-12-18T13:17:31.984Z,15.87
2022-12-18T13:22:47.268Z,15.93
2022-12-18T13:28:04.394Z,17.13
2022-12-18T13:34:25.629Z,16.80
2022-12-18T13:39:38.608Z,15.33
2022-12-18T13:44:45.397Z,14.23
2022-12-18T13:49:50.944Z,15.70
2022-12-18T13:55:01.942Z,15.47
2022-12-18T14:00:29.633Z,14.30
2022-12-18T14:05:39.958Z,13.90
2022-12-18T14:10:54.793Z,13.97
2022-12-18T14:16:04.454Z,12.90
2022-12-18T14:21:19.552Z,14.53
2022-12-18T14:26:31.857Z,13.60
2022-12-18T14:31:36.867Z,14.30
2022-12-18T14:36:41.847Z,14.37
2022-12-18T14:41:50.667Z,14.77
2022-12-18T14:46:56.937Z,15.80
2022-12-18T14:52:06.940Z,16.33
2022-12-18T14:57:26.372Z,13.13
2022-12-18T15:02:33.119Z,15.93
2022-12-18T15:07:45.823Z,15.30
2022-12-18T15:13:12.807Z,16.13
2022-12-18T15:18:21.478Z,15.30
2022-12-18T15:23:28.793Z,15.47
2022-12-18T15:28:40.764Z,15.97
2022-12-18T15:33:47.572Z,17.10
2022-12-18T15:38:53.667Z,16.60
2022-12-18T15:44:01.480Z,14.83
2022-12-18T15:49:06.586Z,14.37
2022-12-18T15:54:16.766Z,17.83
2022-12-18T15:59:25.119Z,15.20
2022-12-18T16:04:30.059Z,18.23
2022-12-18T16:09:34.956Z,16.70
2022-12-18T16:14:43.492Z,16.50
2022-12-18T16:19:49.095Z,17.83
2022-12-18T16:24:55.337Z,17.57
2022-12-18T16:30:03.363Z,18.73
2022-12-18T16:35:09.691Z,18.03
2022-12-18T16:40:17.188Z,17.23
2022-12-18T16:45:27.554Z,17.87
2022-12-18T16:50:35.801Z,18.10
2022-12-18T16:55:40.685Z,18.30
2022-12-18T17:00:48.319Z,18.63
2022-12-18T17:05:54.425Z,20.43
2022-12-18T17:11:00.413Z,19.50
2022-12-18T17:16:10.792Z,18.90
2022-12-18T17:21:16.236Z,19.03
2022-12-18T17:26:23.575Z,17.13
2022-12-18T17:31:33.743Z,19.47
2022-12-18T17:36:39.672Z,18.77
2022-12-18T17:41:46.813Z,21.07
2022-12-18T17:46:55.685Z,20.83
2022-12-18T17:52:00.997Z,20.50
2022-12-18T17:57:06.873Z,20.37
2022-12-18T18:02:18.858Z,18.27
2022-12-18T18:07:26.877Z,19.80
2022-12-18T18:12:45.634Z,20.37
2022-12-18T18:17:54.068Z,18.47
2022-12-18T18:22:59.433Z,18.07
2022-12-18T18:28:05.441Z,18.13
2022-12-18T18:33:13.012Z,18.77
2022-12-18T18:38:20.398Z,16.50
2022-12-18T18:43:25.846Z,18.33
2022-12-18T18:48:36.605Z,16.37
2022-12-18T18:53:44.833Z,18.17
2022-12-18T18:58:50.300Z,20.00
2022-12-18T19:04:01.697Z,17.47
2022-12-18T19:09:07.576Z,18.80
2022-12-18T19:14:15.428Z,19.87
2022-12-18T19:19:23.786Z,19.17
2022-12-18T19:24:29.095Z,22.30
2022-12-18T19:29:34.140Z,19.10
2022-12-18T19:34:44.043Z,18.87
2022-12-18T19:39:55.197Z,20.93
2022-12-18T19:45:04.128Z,20.17
2022-12-18T19:50:14.022Z,20.77
2022-12-18T19:55:28.785Z,19.60
2022-12-18T20:00:36.601Z,21.13
2022-12-18T20:05:44.763Z,17.87
2022-12-18T20:10:50.723Z,20.27
2022-12-18T20:15:57.444Z,18.80
2022-12-18T20:21:08.308Z,21.47
2022-12-18T20:26:18.514Z,18.10
2022-12-18T20:31:29.030Z,15.97
2022-12-18T20:36:38.819Z,20.63
2022-12-18T20:41:46.043Z,18.03
2022-12-18T20:46:51.771Z,17.03
2022-12-18T20:52:03.278Z,17.43
2022-12-18T20:57:08.793Z,15.70
2022-12-18T21:02:16.686Z,17.40
2022-12-18T21:07:27.731Z,17.73
2022-12-18T21:13:01.593Z,17.93
2022-12-18T21:18:09.627Z,21.00
2022-12-18T21:23:17.781Z,19.47
2022-12-18T21:28:22.876Z,18.63
2022-12-18T21:33:28.893Z,18.43
2022-12-18T21:38:36.691Z,21.07
2022-12-18T21:43:54.008Z,17.17
2022-12-18T21:48:59.034Z,18.73
2022-12-18T21:54:07.230Z,18.43
2022-12-18T21:59:12.861Z,19.40
2022-12-18T22:04:18.731Z,21.13
2022-12-18T22:09:28.118Z,20.63
2022-12-18T22:14:33.287Z,23.20
2022-12-18T22:19:42.804Z,20.97
2022-12-18T22:24:50.870Z,17.20
2022-12-18T22:30:08.307Z,18.50
2022-12-18T22:35:16.032Z,17.53
2022-12-18T22:40:26.895Z,18.37
2022-12-18T22:45:31.954Z,16.47
2022-12-18T22:50:38.940Z,17.83
2022-12-18T22:55:46.486Z,20.87
2022-12-18T23:00:51.674Z,19.47
2022-12-18T23:05:56.610Z,18.33
2022-12-18T23:11:04.620Z,18.93
2022-12-18T23:16:11.046Z,17.03
2022-12-18T23:21:17.730Z,20.80
2022-12-18T23:26:28.161Z,20.50
2022-12-18T23:31:34.974Z,19.60
2022-12-18T23:36:46.006Z,19.80
2022-12-18T23:41:54.636Z,20.33
2022-12-18T23:46:59.510Z,20.93
2022-12-18T23:52:04.406Z,21.87
2022-12-18T23:57:11.957Z,21.33
